sensor_id;sensor_type;location;lat;lon;timestamp;P1;durP1;ratioP1;P2;durP2;ratioP2
19826;SDS011;10074;52.018;4.726;2022-12-05T00:00:19;3.55;;;2.58;;
19826;SDS011;10074;52.018;4.726;2022-12-05T00:05:19;2.20;;;2.00;;
19826;SDS011;10074;52.018;4.726;2022-12-05T00:10:19;6.30;;;3.13;;
19826;SDS011;10074;52.018;4.726;2022-12-05T00:15:20;2.17;;;1.90;;
19826;SDS011;10074;52.018;4.726;2022-12-05T00:20:20;4.00;;;2.63;;
19826;SDS011;10074;52.018;4.726;2022-12-05T00:25:20;4.00;;;3.20;;
19826;SDS011;10074;52.018;4.726;2022-12-05T00:30:21;4.67;;;2.43;;
19826;SDS011;10074;52.018;4.726;2022-12-05T00:35:21;3.47;;;2.17;;
19826;SDS011;10074;52.018;4.726;2022-12-05T00:40:21;4.10;;;2.70;;
19826;SDS011;10074;52.018;4.726;2022-12-05T00:45:22;5.03;;;2.20;;
19826;SDS011;10074;52.018;4.726;2022-12-05T00:50:22;4.47;;;3.80;;
19826;SDS011;10074;52.018;4.726;2022-12-05T00:55:22;5.33;;;2.07;;
19826;SDS011;10074;52.018;4.726;2022-12-05T01:00:22;3.30;;;3.00;;
19826;SDS011;10074;52.018;4.726;2022-12-05T01:05:23;3.97;;;2.33;;
19826;SDS011;10074;52.018;4.726;2022-12-05T01:10:23;2.50;;;2.13;;
19826;SDS011;10074;52.018;4.726;2022-12-05T01:15:23;2.67;;;2.47;;
19826;SDS011;10074;52.018;4.726;2022-12-05T01:20:24;4.33;;;2.47;;
19826;SDS011;10074;52.018;4.726;2022-12-05T01:25:24;2.80;;;2.60;;
19826;SDS011;10074;52.018;4.726;2022-12-05T01:30:24;2.97;;;2.20;;
19826;SDS011;10074;52.018;4.726;2022-12-05T01:35:25;3.13;;;2.70;;
19826;SDS011;10074;52.018;4.726;2022-12-05T01:40:25;2.73;;;1.97;;
19826;SDS011;10074;52.018;4.726;2022-12-05T01:45:36;2.30;;;2.10;;
19826;SDS011;10074;52.018;4.726;2022-12-05T01:50:39;3.93;;;2.37;;
19826;SDS011;10074;52.018;4.726;2022-12-05T01:55:39;2.13;;;1.90;;
19826;SDS011;10074;52.018;4.726;2022-12-05T02:00:40;2.30;;;2.10;;
19826;SDS011;10074;52.018;4.726;2022-12-05T02:05:40;2.97;;;2.00;;
19826;SDS011;10074;52.018;4.726;2022-12-05T02:10:50;2.90;;;2.20;;
19826;SDS011;10074;52.018;4.726;2022-12-05T02:16:01;1.67;;;1.30;;
19826;SDS011;10074;52.018;4.726;2022-12-05T02:21:13;3.10;;;2.23;;
19826;SDS011;10074;52.018;4.726;2022-12-05T02:32:03;2.07;;;1.90;;
19826;SDS011;10074;52.018;4.726;2022-12-05T02:37:25;1.63;;;1.53;;
19826;SDS011;10074;52.018;4.726;2022-12-05T02:42:30;3.00;;;2.33;;
19826;SDS011;10074;52.018;4.726;2022-12-05T02:47:38;2.43;;;2.10;;
19826;SDS011;10074;52.018;4.726;2022-12-05T02:52:43;2.03;;;1.70;;
19826;SDS011;10074;52.018;4.726;2022-12-05T02:57:48;2.97;;;1.90;;
19826;SDS011;10074;52.018;4.726;2022-12-05T03:02:52;3.73;;;2.63;;
19826;SDS011;10074;52.018;4.726;2022-12-05T03:07:57;3.73;;;3.00;;
19826;SDS011;10074;52.018;4.726;2022-12-05T03:13:04;3.77;;;2.00;;
19826;SDS011;10074;52.018;4.726;2022-12-05T03:18:12;2.13;;;1.90;;
19826;SDS011;10074;52.018;4.726;2022-12-05T03:23:15;3.97;;;3.67;;
19826;SDS011;10074;52.018;4.726;2022-12-05T03:28:31;2.47;;;2.27;;
19826;SDS011;10074;52.018;4.726;2022-12-05T03:33:49;2.20;;;2.10;;
19826;SDS011;10074;52.018;4.726;2022-12-05T03:39:00;4.00;;;1.87;;
19826;SDS011;10074;52.018;4.726;2022-12-05T03:44:15;3.00;;;2.53;;
19826;SDS011;10074;52.018;4.726;2022-12-05T03:49:32;3.83;;;2.30;;
19826;SDS011;10074;52.018;4.726;2022-12-05T03:59:59;3.80;;;3.50;;
19826;SDS011;10074;52.018;4.726;2022-12-05T04:05:06;3.10;;;2.80;;
19826;SDS011;10074;52.018;4.726;2022-12-05T04:10:30;4.43;;;2.53;;
19826;SDS011;10074;52.018;4.726;2022-12-05T04:15:50;3.37;;;2.10;;
19826;SDS011;10074;52.018;4.726;2022-12-05T04:21:22;2.77;;;1.83;;
19826;SDS011;10074;52.018;4.726;2022-12-05T04:26:42;2.63;;;1.93;;
19826;SDS011;10074;52.018;4.726;2022-12-05T04:31:48;2.50;;;2.30;;
19826;SDS011;10074;52.018;4.726;2022-12-05T04:37:01;3.13;;;2.63;;
19826;SDS011;10074;52.018;4.726;2022-12-05T04:42:11;2.30;;;2.10;;
19826;SDS011;10074;52.018;4.726;2022-12-05T04:47:16;2.93;;;2.37;;
19826;SDS011;10074;52.018;4.726;2022-12-05T04:52:20;2.63;;;2.43;;
19826;SDS011;10074;52.018;4.726;2022-12-05T04:57:23;3.43;;;2.37;;
19826;SDS011;10074;52.018;4.726;2022-12-05T05:02:32;2.53;;;1.87;;
19826;SDS011;10074;52.018;4.726;2022-12-05T05:07:47;2.60;;;1.87;;
19826;SDS011;10074;52.018;4.726;2022-12-05T05:12:49;1.83;;;1.73;;
19826;SDS011;10074;52.018;4.726;2022-12-05T05:17:49;2.70;;;2.03;;
19826;SDS011;10074;52.018;4.726;2022-12-05T05:22:51;2.23;;;2.13;;
19826;SDS011;10074;52.018;4.726;2022-12-05T05:27:55;2.40;;;1.50;;
19826;SDS011;10074;52.018;4.726;2022-12-05T05:32:57;2.37;;;1.83;;
19826;SDS011;10074;52.018;4.726;2022-12-05T05:37:58;2.87;;;2.27;;
19826;SDS011;10074;52.018;4.726;2022-12-05T05:42:58;2.60;;;2.40;;
19826;SDS011;10074;52.018;4.726;2022-12-05T05:47:59;2.43;;;2.13;;
19826;SDS011;10074;52.018;4.726;2022-12-05T05:52:59;1.30;;;1.20;;
19826;SDS011;10074;52.018;4.726;2022-12-05T05:57:59;1.95;;;1.67;;
19826;SDS011;10074;52.018;4.726;2022-12-05T06:03:00;2.00;;;1.90;;
19826;SDS011;10074;52.018;4.726;2022-12-05T06:08:00;1.93;;;1.60;;
19826;SDS011;10074;52.018;4.726;2022-12-05T06:13:01;1.93;;;1.83;;
19826;SDS011;10074;52.018;4.726;2022-12-05T06:18:01;3.60;;;2.53;;
19826;SDS011;10074;52.018;4.726;2022-12-05T06:23:01;1.77;;;1.60;;
19826;SDS011;10074;52.018;4.726;2022-12-05T06:28:01;1.70;;;1.53;;
19826;SDS011;10074;52.018;4.726;2022-12-05T06:33:02;2.07;;;1.80;;
19826;SDS011;10074;52.018;4.726;2022-12-05T06:38:02;2.57;;;2.27;;
19826;SDS011;10074;52.018;4.726;2022-12-05T06:43:02;2.53;;;1.50;;
19826;SDS011;10074;52.018;4.726;2022-12-05T06:48:03;2.37;;;1.20;;
19826;SDS011;10074;52.018;4.726;2022-12-05T06:53:04;2.07;;;1.87;;
19826;SDS011;10074;52.018;4.726;2022-12-05T06:58:04;2.27;;;1.90;;
19826;SDS011;10074;52.018;4.726;2022-12-05T07:03:04;2.73;;;1.33;;
19826;SDS011;10074;52.018;4.726;2022-12-05T07:08:05;2.10;;;1.90;;
19826;SDS011;10074;52.018;4.726;2022-12-05T07:13:05;1.93;;;1.30;;
19826;SDS011;10074;52.018;4.726;2022-12-05T07:18:05;2.63;;;1.93;;
19826;SDS011;10074;52.018;4.726;2022-12-05T07:23:06;1.53;;;1.43;;
19826;SDS011;10074;52.018;4.726;2022-12-05T07:28:07;2.07;;;1.40;;
19826;SDS011;10074;52.018;4.726;2022-12-05T07:33:07;1.77;;;1.40;;
19826;SDS011;10074;52.018;4.726;2022-12-05T07:38:08;1.27;;;1.27;;
19826;SDS011;10074;52.018;4.726;2022-12-05T07:43:08;1.73;;;1.63;;
19826;SDS011;10074;52.018;4.726;2022-12-05T07:48:08;2.03;;;1.63;;
19826;SDS011;10074;52.018;4.726;2022-12-05T07:53:09;1.27;;;1.17;;
19826;SDS011;10074;52.018;4.726;2022-12-05T07:58:09;1.92;;;1.17;;
19826;SDS011;10074;52.018;4.726;2022-12-05T08:03:09;2.00;;;1.60;;
19826;SDS011;10074;52.018;4.726;2022-12-05T08:08:09;2.20;;;2.10;;
19826;SDS011;10074;52.018;4.726;2022-12-05T08:13:10;1.70;;;1.60;;
19826;SDS011;10074;52.018;4.726;2022-12-05T08:18:10;2.60;;;1.60;;
19826;SDS011;10074;52.018;4.726;2022-12-05T08:23:10;1.47;;;1.37;;
19826;SDS011;10074;52.018;4.726;2022-12-05T08:28:11;2.27;;;2.07;;
19826;SDS011;10074;52.018;4.726;2022-12-05T08:33:11;2.63;;;2.03;;
19826;SDS011;10074;52.018;4.726;2022-12-05T08:38:11;1.50;;;1.40;;
19826;SDS011;10074;52.018;4.726;2022-12-05T08:43:12;1.40;;;1.20;;
19826;SDS011;10074;52.018;4.726;2022-12-05T08:48:12;1.23;;;1.13;;
19826;SDS011;10074;52.018;4.726;2022-12-05T08:53:13;2.03;;;1.40;;
19826;SDS011;10074;52.018;4.726;2022-12-05T08:58:13;2.30;;;1.97;;
19826;SDS011;10074;52.018;4.726;2022-12-05T09:03:14;1.63;;;1.47;;
19826;SDS011;10074;52.018;4.726;2022-12-05T09:08:14;1.40;;;1.00;;
19826;SDS011;10074;52.018;4.726;2022-12-05T09:13:14;2.90;;;1.43;;
19826;SDS011;10074;52.018;4.726;2022-12-05T09:18:15;1.50;;;1.40;;
19826;SDS011;10074;52.018;4.726;2022-12-05T09:23:15;2.13;;;1.20;;
19826;SDS011;10074;52.018;4.726;2022-12-05T09:28:15;0.90;;;0.90;;
19826;SDS011;10074;52.018;4.726;2022-12-05T09:33:15;1.10;;;1.10;;
19826;SDS011;10074;52.018;4.726;2022-12-05T09:38:16;1.80;;;1.67;;
19826;SDS011;10074;52.018;4.726;2022-12-05T09:43:24;1.77;;;1.30;;
19826;SDS011;10074;52.018;4.726;2022-12-05T09:48:32;2.83;;;1.17;;
19826;SDS011;10074;52.018;4.726;2022-12-05T09:53:36;2.10;;;1.40;;
19826;SDS011;10074;52.018;4.726;2022-12-05T09:58:43;1.47;;;1.37;;
19826;SDS011;10074;52.018;4.726;2022-12-05T10:19:30;1.70;;;1.30;;
19826;SDS011;10074;52.018;4.726;2022-12-05T10:24:40;1.63;;;1.17;;
19826;SDS011;10074;52.018;4.726;2022-12-05T10:29:52;1.57;;;1.43;;
19826;SDS011;10074;52.018;4.726;2022-12-05T10:34:59;1.17;;;1.17;;
19826;SDS011;10074;52.018;4.726;2022-12-05T10:40:13;1.27;;;1.20;;
19826;SDS011;10074;52.018;4.726;2022-12-05T10:45:19;1.00;;;0.90;;
19826;SDS011;10074;52.018;4.726;2022-12-05T10:50:22;2.60;;;0.93;;
19826;SDS011;10074;52.018;4.726;2022-12-05T10:55:41;2.63;;;2.20;;
19826;SDS011;10074;52.018;4.726;2022-12-05T11:00:44;1.10;;;1.00;;
19826;SDS011;10074;52.018;4.726;2022-12-05T11:05:51;1.07;;;0.97;;
19826;SDS011;10074;52.018;4.726;2022-12-05T11:11:00;1.10;;;1.00;;
19826;SDS011;10074;52.018;4.726;2022-12-05T11:16:01;0.97;;;0.83;;
19826;SDS011;10074;52.018;4.726;2022-12-05T11:21:12;1.93;;;1.37;;
19826;SDS011;10074;52.018;4.726;2022-12-05T11:31:36;2.30;;;1.13;;
19826;SDS011;10074;52.018;4.726;2022-12-05T11:36:39;0.70;;;0.70;;
19826;SDS011;10074;52.018;4.726;2022-12-05T11:52:51;1.10;;;1.00;;
19826;SDS011;10074;52.018;4.726;2022-12-05T12:13:56;0.83;;;0.83;;
19826;SDS011;10074;52.018;4.726;2022-12-05T12:25:12;1.57;;;1.10;;
19826;SDS011;10074;52.018;4.726;2022-12-05T12:35:56;1.50;;;0.93;;
19826;SDS011;10074;52.018;4.726;2022-12-05T12:41:02;1.70;;;1.37;;
19826;SDS011;10074;52.018;4.726;2022-12-05T12:46:13;0.63;;;0.63;;
19826;SDS011;10074;52.018;4.726;2022-12-05T12:51:20;0.60;;;0.60;;
19826;SDS011;10074;52.018;4.726;2022-12-05T13:01:42;1.00;;;0.90;;
19826;SDS011;10074;52.018;4.726;2022-12-05T13:06:51;0.90;;;0.90;;
19826;SDS011;10074;52.018;4.726;2022-12-05T13:12:06;0.80;;;0.60;;
19826;SDS011;10074;52.018;4.726;2022-12-05T13:17:10;2.33;;;1.40;;
19826;SDS011;10074;52.018;4.726;2022-12-05T13:22:17;1.30;;;1.20;;
19826;SDS011;10074;52.018;4.726;2022-12-05T13:27:25;0.83;;;0.83;;
19826;SDS011;10074;52.018;4.726;2022-12-05T13:32:34;0.83;;;0.80;;
19826;SDS011;10074;52.018;4.726;2022-12-05T13:37:43;0.60;;;0.60;;
19826;SDS011;10074;52.018;4.726;2022-12-05T13:43:04;1.00;;;1.00;;
19826;SDS011;10074;52.018;4.726;2022-12-05T13:48:19;0.83;;;0.83;;
19826;SDS011;10074;52.018;4.726;2022-12-05T13:53:27;0.80;;;0.80;;
19826;SDS011;10074;52.018;4.726;2022-12-05T13:58:36;0.60;;;0.60;;
19826;SDS011;10074;52.018;4.726;2022-12-05T14:08:50;1.30;;;0.60;;
19826;SDS011;10074;52.018;4.726;2022-12-05T14:13:53;1.30;;;1.10;;
19826;SDS011;10074;52.018;4.726;2022-12-05T14:19:05;1.03;;;0.93;;
19826;SDS011;10074;52.018;4.726;2022-12-05T14:24:37;0.97;;;0.97;;
19826;SDS011;10074;52.018;4.726;2022-12-05T14:35:26;1.93;;;1.40;;
19826;SDS011;10074;52.018;4.726;2022-12-05T14:40:31;0.97;;;0.60;;
19826;SDS011;10074;52.018;4.726;2022-12-05T14:45:37;0.97;;;0.97;;
19826;SDS011;10074;52.018;4.726;2022-12-05T15:01:06;2.43;;;1.10;;
19826;SDS011;10074;52.018;4.726;2022-12-05T15:06:18;0.83;;;0.83;;
19826;SDS011;10074;52.018;4.726;2022-12-05T15:11:22;1.27;;;1.10;;
19826;SDS011;10074;52.018;4.726;2022-12-05T15:16:30;1.00;;;1.00;;
19826;SDS011;10074;52.018;4.726;2022-12-05T15:21:37;2.80;;;1.30;;
19826;SDS011;10074;52.018;4.726;2022-12-05T15:26:51;2.57;;;1.40;;
19826;SDS011;10074;52.018;4.726;2022-12-05T15:31:58;1.13;;;1.03;;
19826;SDS011;10074;52.018;4.726;2022-12-05T15:42:08;0.73;;;0.73;;
19826;SDS011;10074;52.018;4.726;2022-12-05T15:47:21;0.90;;;0.90;;
19826;SDS011;10074;52.018;4.726;2022-12-05T15:52:25;0.60;;;0.60;;
19826;SDS011;10074;52.018;4.726;2022-12-05T15:57:41;0.60;;;0.60;;
19826;SDS011;10074;52.018;4.726;2022-12-05T16:08:01;0.87;;;0.70;;
19826;SDS011;10074;52.018;4.726;2022-12-05T16:13:06;0.57;;;0.50;;
19826;SDS011;10074;52.018;4.726;2022-12-05T16:18:26;2.00;;;1.10;;
19826;SDS011;10074;52.018;4.726;2022-12-05T16:23:29;1.07;;;0.97;;
19826;SDS011;10074;52.018;4.726;2022-12-05T16:28:32;0.53;;;0.53;;
19826;SDS011;10074;52.018;4.726;2022-12-05T16:33:32;1.07;;;0.90;;
19826;SDS011;10074;52.018;4.726;2022-12-05T16:38:33;0.50;;;0.50;;
19826;SDS011;10074;52.018;4.726;2022-12-05T16:48:33;1.30;;;0.93;;
19826;SDS011;10074;52.018;4.726;2022-12-05T16:53:35;1.00;;;0.67;;
19826;SDS011;10074;52.018;4.726;2022-12-05T16:58:36;0.80;;;0.80;;
19826;SDS011;10074;52.018;4.726;2022-12-05T17:03:37;0.60;;;0.60;;
19826;SDS011;10074;52.018;4.726;2022-12-05T17:08:37;1.47;;;1.37;;
19826;SDS011;10074;52.018;4.726;2022-12-05T17:13:37;1.53;;;0.77;;
19826;SDS011;10074;52.018;4.726;2022-12-05T17:18:38;0.47;;;0.40;;
19826;SDS011;10074;52.018;4.726;2022-12-05T17:23:38;1.27;;;0.70;;
19826;SDS011;10074;52.018;4.726;2022-12-05T17:28:38;0.87;;;0.70;;
19826;SDS011;10074;52.018;4.726;2022-12-05T17:33:39;0.90;;;0.90;;
19826;SDS011;10074;52.018;4.726;2022-12-05T17:38:39;0.50;;;0.50;;
19826;SDS011;10074;52.018;4.726;2022-12-05T17:43:40;1.53;;;1.43;;
19826;SDS011;10074;52.018;4.726;2022-12-05T17:48:40;1.30;;;1.00;;
19826;SDS011;10074;52.018;4.726;2022-12-05T17:53:41;1.30;;;1.13;;
19826;SDS011;10074;52.018;4.726;2022-12-05T17:58:44;1.00;;;0.90;;
19826;SDS011;10074;52.018;4.726;2022-12-05T18:03:46;0.97;;;0.87;;
19826;SDS011;10074;52.018;4.726;2022-12-05T18:08:47;0.50;;;0.50;;
19826;SDS011;10074;52.018;4.726;2022-12-05T18:13:49;0.60;;;0.60;;
19826;SDS011;10074;52.018;4.726;2022-12-05T18:18:49;0.70;;;0.70;;
19826;SDS011;10074;52.018;4.726;2022-12-05T18:23:50;0.60;;;0.60;;
19826;SDS011;10074;52.018;4.726;2022-12-05T18:28:50;2.20;;;1.27;;
19826;SDS011;10074;52.018;4.726;2022-12-05T18:33:53;0.73;;;0.73;;
19826;SDS011;10074;52.018;4.726;2022-12-05T18:38:54;0.60;;;0.60;;
19826;SDS011;10074;52.018;4.726;2022-12-05T18:43:56;0.97;;;0.60;;
19826;SDS011;10074;52.018;4.726;2022-12-05T18:48:57;0.50;;;0.43;;
19826;SDS011;10074;52.018;4.726;2022-12-05T18:53:57;2.00;;;0.80;;
19826;SDS011;10074;52.018;4.726;2022-12-05T18:58:58;0.60;;;0.60;;
19826;SDS011;10074;52.018;4.726;2022-12-05T19:04:03;0.80;;;0.80;;
19826;SDS011;10074;52.018;4.726;2022-12-05T19:09:06;0.77;;;0.77;;
19826;SDS011;10074;52.018;4.726;2022-12-05T19:14:08;0.60;;;0.50;;
19826;SDS011;10074;52.018;4.726;2022-12-05T19:19:11;2.50;;;1.27;;
19826;SDS011;10074;52.018;4.726;2022-12-05T19:24:14;0.63;;;0.60;;
19826;SDS011;10074;52.018;4.726;2022-12-05T19:29:16;0.90;;;0.50;;
19826;SDS011;10074;52.018;4.726;2022-12-05T19:34:16;0.93;;;0.93;;
19826;SDS011;10074;52.018;4.726;2022-12-05T19:39:20;1.73;;;0.87;;
19826;SDS011;10074;52.018;4.726;2022-12-05T19:44:21;0.50;;;0.50;;
19826;SDS011;10074;52.018;4.726;2022-12-05T19:49:22;1.10;;;1.00;;
19826;SDS011;10074;52.018;4.726;2022-12-05T19:54:22;0.50;;;0.50;;
19826;SDS011;10074;52.018;4.726;2022-12-05T19:59:23;0.57;;;0.57;;
19826;SDS011;10074;52.018;4.726;2022-12-05T20:04:23;0.40;;;0.40;;
19826;SDS011;10074;52.018;4.726;2022-12-05T20:09:23;1.17;;;1.00;;
19826;SDS011;10074;52.018;4.726;2022-12-05T20:14:24;1.20;;;1.10;;
19826;SDS011;10074;52.018;4.726;2022-12-05T20:19:24;1.33;;;1.23;;
19826;SDS011;10074;52.018;4.726;2022-12-05T20:24:25;0.90;;;0.80;;
19826;SDS011;10074;52.018;4.726;2022-12-05T20:29:25;0.40;;;0.40;;
19826;SDS011;10074;52.018;4.726;2022-12-05T20:34:25;0.60;;;0.60;;
19826;SDS011;10074;52.018;4.726;2022-12-05T20:39:26;0.53;;;0.47;;
19826;SDS011;10074;52.018;4.726;2022-12-05T20:44:28;0.70;;;0.50;;
19826;SDS011;10074;52.018;4.726;2022-12-05T20:49:28;0.53;;;0.53;;
19826;SDS011;10074;52.018;4.726;2022-12-05T20:54:29;1.00;;;0.90;;
19826;SDS011;10074;52.018;4.726;2022-12-05T20:59:29;0.50;;;0.40;;
19826;SDS011;10074;52.018;4.726;2022-12-05T21:04:29;0.50;;;0.50;;
19826;SDS011;10074;52.018;4.726;2022-12-05T21:09:30;0.60;;;0.60;;
19826;SDS011;10074;52.018;4.726;2022-12-05T21:14:30;0.70;;;0.70;;
19826;SDS011;10074;52.018;4.726;2022-12-05T21:19:33;0.50;;;0.50;;
19826;SDS011;10074;52.018;4.726;2022-12-05T21:24:33;0.50;;;0.50;;
19826;SDS011;10074;52.018;4.726;2022-12-05T21:29:33;0.50;;;0.50;;
19826;SDS011;10074;52.018;4.726;2022-12-05T21:34:34;0.50;;;0.43;;
19826;SDS011;10074;52.018;4.726;2022-12-05T21:39:34;0.60;;;0.60;;
19826;SDS011;10074;52.018;4.726;2022-12-05T21:44:34;0.40;;;0.40;;
19826;SDS011;10074;52.018;4.726;2022-12-05T21:49:34;0.57;;;0.57;;
19826;SDS011;10074;52.018;4.726;2022-12-05T21:54:35;0.53;;;0.53;;
19826;SDS011;10074;52.018;4.726;2022-12-05T21:59:35;0.57;;;0.57;;
19826;SDS011;10074;52.018;4.726;2022-12-05T22:04:36;0.67;;;0.67;;
19826;SDS011;10074;52.018;4.726;2022-12-05T22:09:36;0.50;;;0.50;;
19826;SDS011;10074;52.018;4.726;2022-12-05T22:14:37;1.37;;;0.90;;
19826;SDS011;10074;52.018;4.726;2022-12-05T22:19:37;0.57;;;0.57;;
19826;SDS011;10074;52.018;4.726;2022-12-05T22:24:37;1.13;;;0.90;;
19826;SDS011;10074;52.018;4.726;2022-12-05T22:29:38;0.60;;;0.60;;
19826;SDS011;10074;52.018;4.726;2022-12-05T22:34:38;1.53;;;0.93;;
19826;SDS011;10074;52.018;4.726;2022-12-05T22:39:38;1.20;;;0.60;;
19826;SDS011;10074;52.018;4.726;2022-12-05T22:44:39;0.70;;;0.70;;
19826;SDS011;10074;52.018;4.726;2022-12-05T22:49:39;1.57;;;0.70;;
19826;SDS011;10074;52.018;4.726;2022-12-05T22:54:39;0.40;;;0.40;;
19826;SDS011;10074;52.018;4.726;2022-12-05T22:59:39;0.70;;;0.70;;
19826;SDS011;10074;52.018;4.726;2022-12-05T23:04:40;0.50;;;0.50;;
19826;SDS011;10074;52.018;4.726;2022-12-05T23:09:40;0.63;;;0.60;;
19826;SDS011;10074;52.018;4.726;2022-12-05T23:14:40;0.50;;;0.50;;
19826;SDS011;10074;52.018;4.726;2022-12-05T23:19:41;0.90;;;0.53;;
19826;SDS011;10074;52.018;4.726;2022-12-05T23:24:41;0.40;;;0.40;;
19826;SDS011;10074;52.018;4.726;2022-12-05T23:29:41;1.23;;;0.60;;
19826;SDS011;10074;52.018;4.726;2022-12-05T23:34:42;0.77;;;0.60;;
19826;SDS011;10074;52.018;4.726;2022-12-05T23:39:42;0.50;;;0.50;;
19826;SDS011;10074;52.018;4.726;2022-12-05T23:44:43;0.60;;;0.60;;
19826;SDS011;10074;52.018;4.726;2022-12-05T23:49:43;0.57;;;0.57;;
19826;SDS011;10074;52.018;4.726;2022-12-05T23:54:44;0.50;;;0.50;;
19826;SDS011;10074;52.018;4.726;2022-12-05T23:59:44;0.63;;;0.47;;
